Flight Track Log - Related Links

Times and Time Zones

All times are in EST time to prevent confusion due to time zone crossing. See the EJA583 flight status page for this flight to view local times or setup timezone preferences in your user account.

Time Position Orientation Groundspeed Altitude Reporting Facility
EST Latitude Longitude Course Direction KTS MPH feet Rate Location/Type
02:54PM 39.1167 -94.6000 237° Southwest 154 177 1,700  Level Kansas City TRACON
02:55PM 39.1000 -94.6333 237° Southwest 186 214 3,700 3,250 Climbing Kansas City TRACON
02:55PM 39.0817 -94.6544 222° Southwest 184 212 5,600 3,093 Climbing Kansas City Center
02:56PM 39.0317 -94.5894 135° Southeast 281 323 8,700 2,927 Climbing Kansas City Center
02:57PM 39.0458 -94.4797 81° East 321 369 11,600 2,952 Climbing Kansas City Center
02:58PM 39.0647 -94.3464 80° East 339 390 14,800 2,646 Climbing Kansas City Center
02:59PM 39.0819 -94.2278 79° East 350 403 17,200 2,333 Climbing Kansas City Center
03:01PM 39.0933 -94.0789 84° East 376 433 19,700 2,293 Climbing Kansas City Center
03:02PM 39.0836 -93.9472 95° East 384 442 21,900 2,081 Climbing Kansas City Center
03:03PM 39.0733 -93.7861 95° East 408 470 24,000 1,790 Climbing Kansas City Center
03:04PM 39.0642 -93.6383 95° East 429 494 25,600 1,707 Climbing Kansas City Center
03:05PM 39.0519 -93.4611 95° East 445 512 27,500 1,659 Climbing Kansas City Center
03:06PM 39.0414 -93.3083 95° East 453 521 29,000 1,355 Climbing Kansas City Center
03:07PM 39.0292 -93.1433 95° East 462 532 30,300 1,210 Climbing Kansas City Center
03:08PM 39.0169 -92.9733 95° East 470 541 31,500 1,258 Climbing Kansas City Center
03:09PM 38.9831 -92.7669 102° East 479 551 32,900 1,463 Climbing Kansas City Center
03:10PM 38.9342 -92.6119 112° Southeast 472 543 34,500 1,561 Climbing Kansas City Center
03:11PM 38.8861 -92.4572 112° Southeast 468 539 36,100 1,500 Climbing Kansas City Center
03:12PM 38.8400 -92.3086 112° Southeast 456 525 37,600 1,258 Climbing Kansas City Center
03:13PM 38.7844 -92.1703 117° Southeast 440 506 38,700 1,210 Climbing Kansas City Center
03:14PM 38.7167 -92.0500 126° Southeast 419 482 40,100 1,113 Climbing Kansas City Center
03:15PM 38.6564 -91.9211 121° Southeast 418 481 41,000 435 Climbing Kansas City Center
03:16PM 38.6000 -91.7764 116° Southeast 440 506 41,000  Level Kansas City Center
03:17PM 38.5378 -91.6256 118° Southeast 461 531 41,000  Level Kansas City Center
03:18PM 38.4642 -91.4428 117° Southeast 474 545 41,000  Level Kansas City Center
03:19PM 38.4019 -91.2933 118° Southeast 476 548 41,000  Level Kansas City Center
03:20PM 38.3406 -91.1433 118° Southeast 479 551 41,000  Level Kansas City Center
03:21PM 38.2800 -90.9972 118° Southeast 476 548 41,000  Level Kansas City Center
03:22PM 38.2186 -90.8506 118° Southeast 473 544 41,000  Level Kansas City Center
03:23PM 38.1581 -90.7028 117° Southeast 475 547 41,000  Level Kansas City Center
03:24PM 38.0850 -90.5281 118° Southeast 473 544 41,000  Level Kansas City Center
03:25PM 38.0225 -90.3819 118° Southeast 475 547 41,000  Level Kansas City Center
03:26PM 37.9614 -90.2344 118° Southeast 475 547 41,000  Level Kansas City Center
03:27PM 37.8997 -90.0878 118° Southeast 475 547 41,000  Level Kansas City Center
03:28PM 37.8383 -89.9425 118° Southeast 473 544 41,000  Level Kansas City Center
03:29PM 37.7764 -89.7978 118° Southeast 472 543 41,000  Level Kansas City Center
03:30PM 37.7022 -89.6214 118° Southeast 474 545 41,000  Level Kansas City Center
03:31PM 37.6386 -89.4761 119° Southeast 475 547 41,000  Level Kansas City Center
03:32PM 37.5700 -89.3178 119° Southeast 478 550 41,000  Level Kansas City Center
03:34PM 37.5053 -89.1703 119° Southeast 479 551 41,000  Level Kansas City Center
03:35PM 37.4408 -89.0250 119° Southeast 476 548 41,000  Level Kansas City Center
03:36PM 37.3783 -88.8817 119° Southeast 470 541 41,000  Level Kansas City Center
03:36PM 37.3428 -88.7969 118° Southeast 476 548 41,000  Level Memphis Center
03:37PM 37.2806 -88.6522 118° Southeast 476 548 41,000  Level Memphis Center
03:38PM 37.2161 -88.5075 119° Southeast 476 548 41,000  Level Memphis Center
03:40PM 37.1092 -88.2775 120° Southeast 468 539 41,000  Level Kansas City Center
03:41PM 37.0447 -88.1356 120° Southeast 467 537 41,000  Level Kansas City Center
03:42PM 36.9811 -87.9914 119° Southeast 469 540 41,000  Level Kansas City Center
03:43PM 36.8931 -87.7992 120° Southeast 477 549 41,000  Level Memphis Center
03:44PM 36.8275 -87.6561 120° Southeast 477 549 41,000  Level Memphis Center
03:45PM 36.7617 -87.5106 119° Southeast 477 549 41,000  Level Memphis Center
03:46PM 36.6958 -87.3706 120° Southeast 477 549 41,000  Level Memphis Center
03:47PM 36.6297 -87.2258 120° Southeast 477 549 41,000  Level Memphis Center
03:48PM 36.5636 -87.0836 120° Southeast 477 549 41,000  Level Memphis Center
03:49PM 36.4992 -86.9392 119° Southeast 477 549 41,000  Level Memphis Center
03:50PM 36.4222 -86.7928 123° Southeast 477 549 41,000  Level Memphis Center
03:51PM 36.3681 -86.6561 116° Southeast 488 562 41,000  Level Memphis Center
03:52PM 36.2906 -86.5075 123° Southeast 483 556 41,000  Level Memphis Center
03:53PM 36.2236 -86.3692 121° Southeast 472 543 41,000  Level Memphis Center
03:54PM 36.1567 -86.2286 121° Southeast 472 543 41,000  Level Memphis Center
03:55PM 36.0892 -86.0883 121° Southeast 477 549 41,000  Level Memphis Center
03:58PM 35.9256 -85.7492 121° Southeast 456 525 41,000  Level Atlanta Center
03:59PM 35.8583 -85.6119 121° Southeast 461 531 41,000  Level Atlanta Center
04:00PM 35.7914 -85.4750 121° Southeast 461 531 41,000  Level Atlanta Center
04:01PM 35.7219 -85.3381 122° Southeast 467 537 41,000  Level Atlanta Center
04:02PM 35.6544 -85.2017 121° Southeast 466 536 41,000  Level Atlanta Center
04:03PM 35.5786 -85.0472 121° Southeast 466 536 41,000  Level Atlanta Center
04:04PM 35.5128 -84.9089 120° Southeast 466 536 41,000  Level Atlanta Center
04:05PM 35.4450 -84.7731 121° Southeast 471 542 41,000  Level Atlanta Center
04:06PM 35.3767 -84.6372 122° Southeast 471 542 41,000  Level Atlanta Center
04:07PM 35.3086 -84.4994 121° Southeast 476 548 41,000  Level Atlanta Center
04:08PM 35.2400 -84.3617 121° Southeast 476 548 41,000  Level Atlanta Center
04:09PM 35.1694 -84.2267 123° Southeast 476 548 41,000  Level Atlanta Center
04:10PM 35.1006 -84.0922 122° Southeast 476 548 41,000  Level Atlanta Center
04:11PM 35.0297 -83.9525 122° Southeast 476 548 41,000  Level Atlanta Center
04:12PM 34.9628 -83.8183 121° Southeast 476 548 41,000  Level Atlanta Center
04:13PM 34.9042 -83.6867 118° Southeast 476 548 41,000  Level Atlanta Center
04:14PM 34.8347 -83.5353 119° Southeast 471 542 41,000 -150 Level Atlanta Center
04:15PM 34.7861 -83.4142 116° Southeast 459 528 40,700 -900 Descending Atlanta Center
04:16PM 34.7269 -83.2681 116° Southeast 459 528 39,200 -1,700 Descending Atlanta Center
04:17PM 34.6633 -83.1219 118° Southeast 475 547 37,300 -1,950 Descending Atlanta Center
04:18PM 34.5972 -82.9714 118° Southeast 465 535 35,300 -1,150 Descending Atlanta Center
04:19PM 34.5419 -82.8408 117° Southeast 447 514 35,000 -700 Descending Atlanta Center
04:20PM 34.4819 -82.7008 117° Southeast 455 524 33,900 -1,450 Descending Atlanta Center
04:21PM 34.4325 -82.5756 116° Southeast 466 536 32,100 -1,900 Descending Atlanta Center
04:22PM 34.3889 -82.4303 110° East 461 531 30,100 -2,000 Descending Atlanta Center
04:23PM 34.3742 -82.2744 96° East 456 525 28,100 -1,216 Descending Atlanta Center
04:24PM 34.3550 -82.0272 95° East 456 525 27,000 -431 Descending Jacksonville Center
04:25PM 34.3436 -81.8739 95° East 456 525 27,000  Level Jacksonville Center
04:26PM 34.3317 -81.7183 95° East 463 533 27,000  Level Jacksonville Center
04:27PM 34.3175 -81.5625 96° East 463 533 27,000 -50 Level Jacksonville Center
04:28PM 34.2950 -81.3994 99° East 463 533 26,900  Descending Jacksonville Center
04:29PM 34.1836 -81.3261 151° Southeast 421 484 27,000 50 Climbing Jacksonville Center
04:30PM 34.0783 -81.2528 150° Southeast 415 478 27,000  Level Jacksonville Center
04:31PM 33.9708 -81.1797 151° Southeast 431 496 27,000  Level Jacksonville Center
04:32PM 33.8656 -81.1067 150° Southeast 436 502 27,000 -600 Level Jacksonville Center
04:33PM 33.7475 -81.0267 151° Southeast 441 507 25,800 -1,350 Descending Jacksonville Center
04:34PM 33.6378 -80.9517 150° Southeast 447 514 24,300 -1,550 Descending Jacksonville Center
04:35PM 33.5325 -80.8792 150° Southeast 447 514 22,700 -1,850 Descending Jacksonville Center
04:36PM 33.4311 -80.8119 151° Southeast 434 499 20,600 -2,050 Descending Jacksonville Center
04:37PM 33.3361 -80.7444 149° Southeast 419 482 18,600 -2,050 Descending Jacksonville Center
04:38PM 33.2453 -80.6797 149° Southeast 400 460 16,500 -2,050 Descending Jacksonville Center
04:39PM 33.1953 -80.5692 118° Southeast 361 415 14,500 -1,950 Descending Jacksonville Center
04:40PM 33.1575 -80.4561 112° Southeast 361 415 12,600 -1,800 Descending Jacksonville Center
04:41PM 33.0956 -80.3858 136° Southeast 351 404 10,900 -1,600 Descending Jacksonville Center
04:42PM 33.0264 -80.3606 163° South 275 316 9,400 -1,400 Descending Jacksonville Center
04:43PM 32.9569 -80.3428 168° South 269 310 8,100 -1,300 Descending Jacksonville Center
04:44PM 32.8814 -80.3225 167° South 264 304 6,800 -1,300 Descending Jacksonville Center
04:45PM 32.8103 -80.3072 170° South 264 304 5,500 -1,300 Descending Jacksonville Center
04:47PM 32.7492 -80.1369 125° Southeast  Level Estimated
04:54PM 32.7000 -80.0000 132° Southeast  Level FlightAware Approximate
04:55PM 32.7010 -80.0033 132° Southeast  Level Estimated
04:56PM 32.7000 -80.0000 132° Southeast  Level FlightAware Approximate
04:57PM 32.7010 -80.0033 132° Southeast  Level Estimated
04:58PM 32.7000 -80.0000 132° Southeast  Level FlightAware Approximate

Login

Don't have an account? Register now (free) for customized features, flight alerts, and more!